createdAt,value
2017-12-16T00:00:10.477Z,31.40
2017-12-16T00:01:10.491Z,31.50
2017-12-16T00:02:10.515Z,31.90
2017-12-16T00:03:10.613Z,31.60
2017-12-16T00:04:10.528Z,31.90
2017-12-16T00:05:10.541Z,33.80
2017-12-16T00:06:10.551Z,34.60
2017-12-16T00:07:10.564Z,33.70
2017-12-16T00:08:10.573Z,32.80
2017-12-16T00:09:10.587Z,33.50
2017-12-16T00:10:10.598Z,34.70
2017-12-16T00:11:10.610Z,35.40
2017-12-16T00:12:10.623Z,34.10
2017-12-16T00:13:10.634Z,35.70
2017-12-16T00:14:10.646Z,35.40
2017-12-16T00:15:10.660Z,34.10
2017-12-16T00:16:10.668Z,34.20
2017-12-16T00:17:10.680Z,35.10
2017-12-16T00:18:10.692Z,36.10
2017-12-16T00:19:10.703Z,34.50
2017-12-16T00:20:10.721Z,34.00
2017-12-16T00:21:10.727Z,35.40
2017-12-16T00:22:10.743Z,34.20
2017-12-16T00:23:10.751Z,33.10
2017-12-16T00:24:10.763Z,33.80
2017-12-16T00:25:10.778Z,34.80
2017-12-16T00:26:10.798Z,33.80
2017-12-16T00:27:10.802Z,32.10
2017-12-16T00:28:10.811Z,31.80
2017-12-16T00:29:10.825Z,32.40
2017-12-16T00:31:10.850Z,32.70
2017-12-16T00:32:10.908Z,31.10
2017-12-16T00:33:10.871Z,33.00
2017-12-16T00:34:10.882Z,31.30
2017-12-16T00:35:10.892Z,31.80
2017-12-16T00:36:10.906Z,31.80
2017-12-16T00:37:10.919Z,31.10
2017-12-16T00:38:10.929Z,31.10
2017-12-16T00:39:10.945Z,30.40
2017-12-16T00:40:10.961Z,30.90
2017-12-16T00:41:10.966Z,31.60
2017-12-16T00:42:10.983Z,31.50
2017-12-16T00:43:10.988Z,32.30
2017-12-16T00:44:11.000Z,31.50
2017-12-16T00:45:11.011Z,32.00
2017-12-16T00:46:11.023Z,30.20
2017-12-16T00:47:11.034Z,30.60
2017-12-16T00:48:11.045Z,29.60
2017-12-16T00:49:11.056Z,29.80
2017-12-16T00:50:11.075Z,29.30
2017-12-16T00:51:11.082Z,29.90
2017-12-16T00:52:11.096Z,29.80
2017-12-16T00:53:11.106Z,30.00
2017-12-16T00:54:11.119Z,29.70
2017-12-16T00:55:11.131Z,30.20
2017-12-16T00:56:11.144Z,29.00
2017-12-16T00:57:11.159Z,30.20
2017-12-16T00:58:11.167Z,30.50
2017-12-16T00:59:11.177Z,31.40
2017-12-16T01:00:11.188Z,30.30
2017-12-16T01:01:11.201Z,31.30
2017-12-16T01:02:11.213Z,30.20
2017-12-16T01:03:11.223Z,30.90
2017-12-16T01:04:11.235Z,31.30
2017-12-16T01:05:11.247Z,31.30
2017-12-16T01:06:11.258Z,31.10
2017-12-16T01:07:11.275Z,32.00
2017-12-16T01:08:11.284Z,31.70
2017-12-16T01:09:11.294Z,31.30
2017-12-16T01:10:11.303Z,31.80
2017-12-16T01:11:11.316Z,30.80
2017-12-16T01:12:11.327Z,30.40
2017-12-16T01:13:11.391Z,30.10
2017-12-16T01:14:11.350Z,30.70
2017-12-16T01:15:11.363Z,31.10
2017-12-16T01:16:11.373Z,31.40
2017-12-16T01:17:11.385Z,32.40
2017-12-16T01:18:11.404Z,32.20
2017-12-16T01:19:11.415Z,31.80
2017-12-16T01:20:11.435Z,31.20
2017-12-16T01:21:11.434Z,30.50
2017-12-16T01:22:11.447Z,30.10
2017-12-16T01:23:11.457Z,29.90
2017-12-16T01:24:11.466Z,30.50
2017-12-16T01:25:11.482Z,30.70
2017-12-16T01:26:11.490Z,31.40
2017-12-16T01:27:11.501Z,30.40
2017-12-16T01:28:11.514Z,30.40
2017-12-16T01:29:11.525Z,30.90
2017-12-16T01:30:11.537Z,32.00
2017-12-16T01:31:11.552Z,30.20
2017-12-16T01:32:11.561Z,28.70
2017-12-16T01:33:11.574Z,29.50
2017-12-16T01:34:11.586Z,29.30
2017-12-16T01:35:11.601Z,29.10
2017-12-16T01:36:11.609Z,29.50
2017-12-16T01:37:11.622Z,28.90
2017-12-16T01:38:11.634Z,30.50
2017-12-16T01:39:11.643Z,31.30
2017-12-16T01:40:11.661Z,30.60
2017-12-16T01:41:11.670Z,30.20
2017-12-16T01:42:11.682Z,30.40
2017-12-16T01:43:11.691Z,30.80
2017-12-16T01:44:11.705Z,29.70
2017-12-16T01:45:11.718Z,30.50
2017-12-16T01:46:11.733Z,29.50
2017-12-16T01:47:11.741Z,29.30
2017-12-16T01:48:11.757Z,29.40
2017-12-16T01:49:11.765Z,29.40
2017-12-16T01:50:11.779Z,29.10
2017-12-16T01:51:11.790Z,28.80
2017-12-16T01:52:11.799Z,28.00
2017-12-16T01:53:11.811Z,28.50
2017-12-16T01:54:11.828Z,28.60
2017-12-16T01:55:11.834Z,27.80
2017-12-16T01:56:11.847Z,28.30
2017-12-16T01:57:11.858Z,29.10
2017-12-16T01:58:11.870Z,27.10
2017-12-16T01:59:11.883Z,27.00
2017-12-16T02:00:11.895Z,24.30
2017-12-16T02:01:11.907Z,26.10
2017-12-16T02:02:11.915Z,25.50
2017-12-16T02:03:11.930Z,26.00
2017-12-16T02:04:11.938Z,24.40
2017-12-16T02:05:11.951Z,25.10
2017-12-16T02:06:11.962Z,25.70
2017-12-16T02:07:11.973Z,24.50
2017-12-16T02:08:11.986Z,25.70
2017-12-16T02:09:11.998Z,24.50
2017-12-16T02:10:12.012Z,24.00
2017-12-16T02:11:12.019Z,23.80
2017-12-16T02:12:12.034Z,24.30
2017-12-16T02:13:12.046Z,24.80
2017-12-16T02:14:12.056Z,25.40
2017-12-16T02:15:12.071Z,25.70
2017-12-16T02:16:12.078Z,25.20
2017-12-16T02:17:12.094Z,25.40
2017-12-16T02:18:12.101Z,26.10
2017-12-16T02:19:12.113Z,26.00
2017-12-16T02:20:12.126Z,26.00
2017-12-16T02:21:12.136Z,28.00
2017-12-16T02:22:12.155Z,26.60
2017-12-16T02:23:12.163Z,25.20
2017-12-16T02:24:12.173Z,25.40
2017-12-16T02:25:12.182Z,25.70
2017-12-16T02:26:12.195Z,26.30
2017-12-16T02:27:12.206Z,26.40
2017-12-16T02:28:12.219Z,26.00
2017-12-16T02:29:12.234Z,25.80
2017-12-16T02:30:12.247Z,25.50
2017-12-16T02:31:12.255Z,26.10
2017-12-16T02:32:12.267Z,25.80
2017-12-16T02:33:12.273Z,28.10
2017-12-16T02:34:12.293Z,26.20
2017-12-16T02:35:12.308Z,26.80
2017-12-16T02:36:12.309Z,26.80
2017-12-16T02:37:12.321Z,27.40
2017-12-16T02:38:12.346Z,27.60
2017-12-16T02:39:12.346Z,27.80
2017-12-16T02:40:12.358Z,27.80
2017-12-16T02:41:12.367Z,29.90
2017-12-16T02:42:12.379Z,28.40
2017-12-16T02:43:12.391Z,27.60
2017-12-16T02:44:12.404Z,27.80
2017-12-16T02:45:12.416Z,26.70
2017-12-16T02:46:12.427Z,26.70
2017-12-16T02:47:12.520Z,26.60
2017-12-16T02:48:12.449Z,26.10
2017-12-16T02:49:12.461Z,27.00
2017-12-16T02:50:12.474Z,26.60
2017-12-16T02:51:12.481Z,27.80
2017-12-16T02:52:12.495Z,26.80
2017-12-16T02:53:12.508Z,26.90
2017-12-16T02:54:12.519Z,25.50
2017-12-16T02:55:12.529Z,26.50
2017-12-16T02:56:12.542Z,26.40
2017-12-16T02:57:12.554Z,25.70
2017-12-16T02:58:12.564Z,26.30
2017-12-16T02:59:12.577Z,25.50
2017-12-16T03:00:12.588Z,25.70
2017-12-16T03:01:12.600Z,25.60
2017-12-16T03:02:12.611Z,25.20
2017-12-16T03:03:12.621Z,26.30
2017-12-16T03:04:12.637Z,26.70
2017-12-16T03:05:12.649Z,26.80
2017-12-16T03:06:12.659Z,27.70
2017-12-16T03:07:12.670Z,26.80
2017-12-16T03:08:12.685Z,28.40
2017-12-16T03:09:12.694Z,27.30
2017-12-16T03:10:12.757Z,26.60
2017-12-16T03:11:12.714Z,26.90
2017-12-16T03:12:12.727Z,26.70
2017-12-16T03:13:12.742Z,27.50
2017-12-16T03:14:12.751Z,26.00
2017-12-16T03:15:12.762Z,27.30
2017-12-16T03:16:12.782Z,26.70
2017-12-16T03:17:12.786Z,25.80
2017-12-16T03:18:12.798Z,27.10
2017-12-16T03:19:12.809Z,28.10
2017-12-16T03:20:12.825Z,26.80
2017-12-16T03:21:12.830Z,26.80
2017-12-16T03:22:12.844Z,27.10
2017-12-16T03:23:12.857Z,26.10
2017-12-16T03:24:12.870Z,26.50
2017-12-16T03:25:12.879Z,26.30
2017-12-16T03:26:12.890Z,27.20
2017-12-16T03:27:12.902Z,25.10
2017-12-16T03:28:12.911Z,25.60
2017-12-16T03:29:12.928Z,25.80
2017-12-16T03:30:13.010Z,26.40
2017-12-16T03:31:12.947Z,26.30
2017-12-16T03:32:12.962Z,26.10
2017-12-16T03:33:12.970Z,27.00
2017-12-16T03:34:12.982Z,26.80
2017-12-16T03:35:12.991Z,25.10
2017-12-16T03:36:13.036Z,26.60
2017-12-16T03:37:13.013Z,26.00
2017-12-16T03:38:13.027Z,26.40
2017-12-16T03:39:13.035Z,27.80
2017-12-16T03:40:13.050Z,27.30
2017-12-16T03:41:13.060Z,28.20
2017-12-16T03:42:13.068Z,26.10
2017-12-16T03:43:13.080Z,27.90
2017-12-16T03:44:13.093Z,27.50
2017-12-16T03:45:13.104Z,26.70
2017-12-16T03:46:13.115Z,27.60
2017-12-16T03:47:13.126Z,27.50
2017-12-16T03:48:13.137Z,27.70
2017-12-16T03:49:13.148Z,27.10
2017-12-16T03:50:13.158Z,27.90
2017-12-16T03:51:13.170Z,27.60
2017-12-16T03:52:13.181Z,27.50
2017-12-16T03:53:13.194Z,27.90
2017-12-16T03:54:13.204Z,28.20
2017-12-16T03:55:13.217Z,29.20
2017-12-16T03:56:13.227Z,27.10
2017-12-16T03:57:13.237Z,29.00
2017-12-16T03:58:13.249Z,26.90
2017-12-16T03:59:13.257Z,30.20
2017-12-16T04:00:13.271Z,29.30
2017-12-16T04:01:13.284Z,28.30
2017-12-16T04:02:13.297Z,29.20
2017-12-16T04:03:13.306Z,30.40
2017-12-16T04:04:13.315Z,30.20
2017-12-16T04:05:13.322Z,30.40
2017-12-16T04:06:13.333Z,31.10
2017-12-16T04:07:13.341Z,31.50
2017-12-16T04:08:13.352Z,32.30
2017-12-16T04:09:13.366Z,30.70
2017-12-16T04:10:13.374Z,31.00
2017-12-16T04:11:13.384Z,31.90
2017-12-16T04:12:13.396Z,30.80
2017-12-16T04:13:13.409Z,31.60
2017-12-16T04:14:13.421Z,31.90
2017-12-16T04:15:13.427Z,31.80
2017-12-16T04:16:13.440Z,32.80
2017-12-16T04:17:13.451Z,31.30
2017-12-16T04:18:13.461Z,31.50
2017-12-16T04:19:13.471Z,32.90
2017-12-16T04:20:13.483Z,32.00
2017-12-16T04:21:13.502Z,32.30
2017-12-16T04:22:13.509Z,32.20
2017-12-16T04:23:13.517Z,31.80
2017-12-16T04:24:13.540Z,32.60
2017-12-16T04:25:13.743Z,32.10
2017-12-16T04:26:13.552Z,32.20
2017-12-16T04:27:13.561Z,31.90
2017-12-16T04:28:13.573Z,30.70
2017-12-16T04:29:13.584Z,32.10
2017-12-16T04:30:13.594Z,32.00
2017-12-16T04:31:13.610Z,32.20
2017-12-16T04:32:13.620Z,30.60
2017-12-16T04:33:13.629Z,31.80
2017-12-16T04:34:13.641Z,31.00
2017-12-16T04:35:13.654Z,32.20
2017-12-16T04:36:13.666Z,31.80
2017-12-16T04:37:13.674Z,30.40
2017-12-16T04:38:13.684Z,32.00
2017-12-16T04:39:13.696Z,30.30
2017-12-16T04:40:13.710Z,31.50
2017-12-16T04:41:13.719Z,31.20
2017-12-16T04:42:13.731Z,32.90
2017-12-16T04:43:13.742Z,30.20
2017-12-16T04:44:13.762Z,32.60
2017-12-16T04:45:13.762Z,31.10
2017-12-16T04:46:13.775Z,31.00
2017-12-16T04:47:13.792Z,31.10
2017-12-16T04:48:13.797Z,30.70
2017-12-16T04:49:13.808Z,31.20
2017-12-16T04:50:13.820Z,31.40
2017-12-16T04:51:13.831Z,30.00
2017-12-16T04:52:13.841Z,30.80
2017-12-16T04:53:13.856Z,30.30
2017-12-16T04:54:13.865Z,29.70
2017-12-16T04:55:13.879Z,30.60
2017-12-16T04:56:13.887Z,30.10
2017-12-16T04:57:13.898Z,29.30
2017-12-16T04:58:13.907Z,30.20
2017-12-16T04:59:13.920Z,30.80
2017-12-16T05:00:13.955Z,30.60
2017-12-16T05:01:13.941Z,30.00
2017-12-16T05:02:13.953Z,31.20
2017-12-16T05:03:13.963Z,32.40
2017-12-16T05:04:13.975Z,31.00
2017-12-16T05:05:13.987Z,30.90
2017-12-16T05:06:13.995Z,31.30
2017-12-16T05:07:14.009Z,32.50
2017-12-16T05:08:14.019Z,33.60
2017-12-16T05:09:14.030Z,32.60
2017-12-16T05:10:14.042Z,31.80
2017-12-16T05:11:14.053Z,32.30
2017-12-16T05:12:14.064Z,30.50
2017-12-16T05:13:14.079Z,30.00
2017-12-16T05:14:14.086Z,30.20
2017-12-16T05:15:14.097Z,32.10
2017-12-16T05:16:14.110Z,31.60
2017-12-16T05:17:14.119Z,31.70
2017-12-16T05:18:14.134Z,31.20
2017-12-16T05:19:14.143Z,32.40
2017-12-16T05:20:14.153Z,31.90
2017-12-16T05:21:14.164Z,33.60
2017-12-16T05:22:14.177Z,32.10
2017-12-16T05:23:14.186Z,31.30
2017-12-16T05:24:14.198Z,32.50
2017-12-16T05:25:14.210Z,33.20
2017-12-16T05:26:14.223Z,31.80
2017-12-16T05:27:14.230Z,32.60
2017-12-16T05:28:14.243Z,31.80
2017-12-16T05:29:14.254Z,32.80
2017-12-16T05:30:14.267Z,31.20
2017-12-16T05:31:14.275Z,30.50
2017-12-16T05:32:14.288Z,30.70
2017-12-16T05:33:14.306Z,31.00
2017-12-16T05:34:14.309Z,31.40
2017-12-16T05:35:14.319Z,32.10
2017-12-16T05:36:14.331Z,31.30
2017-12-16T05:37:14.342Z,31.50
2017-12-16T05:38:14.354Z,30.10
2017-12-16T05:39:14.365Z,31.60
2017-12-16T05:40:14.375Z,31.60
2017-12-16T05:41:14.387Z,31.80
2017-12-16T05:42:14.398Z,30.00
2017-12-16T05:43:14.412Z,30.90
2017-12-16T05:44:14.420Z,30.30
2017-12-16T05:45:14.430Z,30.90
2017-12-16T05:46:14.442Z,32.20
2017-12-16T05:47:14.455Z,30.50
2017-12-16T05:48:14.467Z,30.10
2017-12-16T05:49:14.479Z,30.50
2017-12-16T05:50:14.485Z,31.30
2017-12-16T05:51:14.496Z,31.30
2017-12-16T05:52:14.508Z,31.90
2017-12-16T05:53:14.520Z,32.20
2017-12-16T05:54:14.529Z,32.10
2017-12-16T05:55:14.539Z,32.60
2017-12-16T05:56:14.551Z,32.80
2017-12-16T05:57:14.563Z,32.50
2017-12-16T05:58:14.577Z,31.40
2017-12-16T05:59:14.585Z,33.30
2017-12-16T06:00:14.598Z,31.60
2017-12-16T06:01:14.608Z,31.90
2017-12-16T06:02:14.769Z,33.30
2017-12-16T06:03:14.631Z,33.60
2017-12-16T06:04:14.640Z,31.80
2017-12-16T06:05:14.650Z,34.30
2017-12-16T06:06:14.666Z,33.60
2017-12-16T06:07:14.673Z,33.30
2017-12-16T06:08:14.693Z,33.00
2017-12-16T06:09:14.695Z,31.80
2017-12-16T06:10:14.706Z,32.90
2017-12-16T06:11:14.717Z,32.10
2017-12-16T06:12:14.878Z,32.60
2017-12-16T06:13:14.745Z,33.80
2017-12-16T06:14:14.750Z,32.10
2017-12-16T06:15:14.760Z,33.80
2017-12-16T06:16:14.773Z,33.00
2017-12-16T06:17:14.783Z,34.00
2017-12-16T06:18:14.796Z,35.00
2017-12-16T06:19:14.809Z,34.20
2017-12-16T06:20:14.971Z,34.90
2017-12-16T06:21:14.829Z,33.90
2017-12-16T06:22:14.840Z,34.20
2017-12-16T06:23:14.849Z,35.50
2017-12-16T06:24:14.863Z,35.70
2017-12-16T06:25:14.929Z,34.60
2017-12-16T06:26:14.884Z,34.60
2017-12-16T06:27:14.900Z,33.70
2017-12-16T06:28:14.906Z,34.00
2017-12-16T06:29:15.088Z,33.70
2017-12-16T06:30:14.928Z,34.70
2017-12-16T06:31:15.088Z,34.40
2017-12-16T06:32:14.949Z,35.10
2017-12-16T06:33:14.960Z,35.40
2017-12-16T06:34:14.973Z,35.50
2017-12-16T06:35:14.983Z,36.30
2017-12-16T06:36:14.994Z,37.10
2017-12-16T06:37:15.004Z,37.60
2017-12-16T06:38:15.016Z,37.90
2017-12-16T06:39:15.027Z,38.20
2017-12-16T06:40:15.038Z,38.80
2017-12-16T06:41:15.150Z,38.60
2017-12-16T06:42:15.062Z,38.50
2017-12-16T06:43:15.072Z,39.10
2017-12-16T06:44:15.084Z,38.60
2017-12-16T06:45:15.095Z,38.30
2017-12-16T06:46:15.106Z,36.10
2017-12-16T06:47:15.121Z,38.20
2017-12-16T06:48:15.126Z,39.20
2017-12-16T06:49:15.140Z,37.10
2017-12-16T06:50:15.149Z,38.80
2017-12-16T06:51:15.160Z,39.10
2017-12-16T06:52:15.178Z,38.70
2017-12-16T06:53:15.183Z,37.80
2017-12-16T06:54:15.194Z,38.10
2017-12-16T06:55:15.204Z,37.70
2017-12-16T06:56:15.217Z,38.20
2017-12-16T06:57:15.227Z,38.70
2017-12-16T06:58:15.242Z,39.00
2017-12-16T06:59:15.251Z,38.90
2017-12-16T07:00:15.260Z,37.60
2017-12-16T07:01:15.270Z,37.50
2017-12-16T07:02:15.287Z,38.90
2017-12-16T07:03:15.294Z,37.60
2017-12-16T07:04:15.313Z,38.00
2017-12-16T07:05:15.317Z,38.40
2017-12-16T07:06:15.329Z,37.70
2017-12-16T07:07:15.339Z,36.10
2017-12-16T07:08:15.350Z,37.30
2017-12-16T07:09:15.360Z,37.30
2017-12-16T07:10:15.372Z,36.80
2017-12-16T07:11:15.382Z,36.80
2017-12-16T07:12:15.393Z,37.50
2017-12-16T07:13:15.405Z,37.60
2017-12-16T07:14:15.417Z,38.00
2017-12-16T07:15:15.427Z,37.60
2017-12-16T07:16:15.440Z,39.60
2017-12-16T07:17:15.448Z,38.50
2017-12-16T07:18:15.458Z,38.70
2017-12-16T07:19:15.470Z,37.80
2017-12-16T07:20:15.488Z,38.70
2017-12-16T07:21:15.493Z,36.30
2017-12-16T07:22:15.508Z,38.00
2017-12-16T07:23:15.528Z,36.80
2017-12-16T07:24:15.534Z,36.80
2017-12-16T07:25:15.538Z,36.60
2017-12-16T07:26:15.559Z,37.00
2017-12-16T07:27:15.560Z,34.40
2017-12-16T07:28:15.572Z,35.20
2017-12-16T07:29:15.582Z,36.20
2017-12-16T07:30:15.599Z,35.90
2017-12-16T07:31:15.605Z,35.90
2017-12-16T07:32:15.625Z,36.30
2017-12-16T07:33:15.626Z,36.30
2017-12-16T07:34:15.645Z,35.00
2017-12-16T07:35:15.655Z,34.80
2017-12-16T07:36:15.660Z,35.30
2017-12-16T07:37:15.682Z,36.00
2017-12-16T07:38:15.685Z,35.50
2017-12-16T07:39:15.693Z,34.20
2017-12-16T07:40:15.705Z,35.30
2017-12-16T07:41:15.719Z,33.20
2017-12-16T07:42:15.729Z,35.70
2017-12-16T07:43:15.737Z,34.70
2017-12-16T07:44:15.752Z,32.80
2017-12-16T07:45:15.762Z,33.20
2017-12-16T07:46:15.773Z,32.60
2017-12-16T07:47:15.785Z,33.20
2017-12-16T07:48:15.797Z,33.50
2017-12-16T07:49:15.809Z,33.40
2017-12-16T07:50:15.817Z,33.50
2017-12-16T07:51:15.826Z,34.00
2017-12-16T07:52:15.840Z,34.40
2017-12-16T07:53:15.848Z,32.20
2017-12-16T07:54:15.873Z,32.90
2017-12-16T07:55:15.869Z,32.20
2017-12-16T07:56:15.881Z,32.60
2017-12-16T07:57:15.891Z,32.60
2017-12-16T07:58:15.914Z,33.40
2017-12-16T07:59:15.914Z,33.20
2017-12-16T08:00:15.924Z,32.30
2017-12-16T08:01:15.937Z,32.60
2017-12-16T08:02:15.946Z,31.90
2017-12-16T08:03:15.968Z,30.60
2017-12-16T08:04:15.968Z,30.70
2017-12-16T08:05:15.979Z,28.90
2017-12-16T08:06:15.992Z,30.30
2017-12-16T08:07:16.002Z,31.40
2017-12-16T08:08:16.031Z,30.00
2017-12-16T08:09:16.029Z,31.30
2017-12-16T08:10:16.036Z,29.80
2017-12-16T08:11:16.047Z,29.20
2017-12-16T08:12:16.058Z,28.50
2017-12-16T08:13:16.069Z,28.40
2017-12-16T08:14:16.080Z,28.80
2017-12-16T08:15:16.097Z,30.50
2017-12-16T08:16:16.102Z,28.30
2017-12-16T08:17:16.114Z,28.30
2017-12-16T08:18:16.132Z,27.00
2017-12-16T08:19:16.135Z,28.50
2017-12-16T08:20:16.204Z,29.40
2017-12-16T08:21:16.159Z,28.70
2017-12-16T08:22:16.170Z,29.20
2017-12-16T08:23:16.187Z,28.90
2017-12-16T08:24:16.193Z,27.30
2017-12-16T08:25:16.207Z,26.50
2017-12-16T08:26:16.222Z,28.10
2017-12-16T08:27:16.224Z,28.30
2017-12-16T08:28:16.242Z,27.10
2017-12-16T08:29:16.246Z,27.50
2017-12-16T08:30:16.259Z,26.70
2017-12-16T08:31:16.270Z,27.20
2017-12-16T08:32:16.283Z,28.20
2017-12-16T08:33:16.293Z,27.00
2017-12-16T08:34:16.310Z,24.70
2017-12-16T08:35:16.313Z,25.10
2017-12-16T08:36:16.327Z,24.60
2017-12-16T08:37:16.350Z,24.30
2017-12-16T08:38:16.355Z,24.60
2017-12-16T08:39:16.359Z,24.70
2017-12-16T08:40:16.397Z,24.50
2017-12-16T08:41:16.385Z,24.70
2017-12-16T08:42:16.399Z,24.10
2017-12-16T08:43:16.406Z,23.60
2017-12-16T08:44:16.423Z,23.40
2017-12-16T08:45:16.429Z,24.00
2017-12-16T08:46:16.439Z,23.30
2017-12-16T08:47:16.450Z,23.50
2017-12-16T08:48:16.467Z,23.60
2017-12-16T08:49:16.474Z,23.20
2017-12-16T08:50:16.486Z,23.10
2017-12-16T08:51:16.501Z,24.10
2017-12-16T08:52:16.517Z,22.20
2017-12-16T08:53:16.521Z,21.20
2017-12-16T08:54:16.537Z,22.30
2017-12-16T08:55:16.544Z,22.60
2017-12-16T08:56:16.558Z,21.60
2017-12-16T08:57:16.565Z,20.90
2017-12-16T08:58:16.582Z,21.80
2017-12-16T08:59:16.590Z,20.80
2017-12-16T09:00:16.607Z,20.50
2017-12-16T09:01:16.608Z,19.10
2017-12-16T09:02:16.628Z,20.30
2017-12-16T09:03:16.631Z,19.50
2017-12-16T09:04:16.648Z,18.60
2017-12-16T09:05:16.663Z,17.40
2017-12-16T09:06:16.676Z,18.80
2017-12-16T09:07:16.680Z,17.40
2017-12-16T09:08:16.695Z,16.10
2017-12-16T09:09:16.705Z,17.60
2017-12-16T09:10:16.717Z,17.00
2017-12-16T09:11:16.721Z,17.20
2017-12-16T09:12:16.740Z,16.60
2017-12-16T09:13:16.746Z,16.20
2017-12-16T09:14:16.762Z,17.10
2017-12-16T09:15:16.768Z,17.00
2017-12-16T09:16:16.786Z,16.20
2017-12-16T09:17:16.790Z,16.20
2017-12-16T09:18:16.807Z,15.10
2017-12-16T09:19:16.813Z,15.40
2017-12-16T09:20:16.828Z,14.30
2017-12-16T09:21:16.841Z,15.10
2017-12-16T09:22:16.849Z,14.30
2017-12-16T09:23:16.858Z,15.40
2017-12-16T09:24:16.874Z,13.50
2017-12-16T09:25:16.879Z,14.10
2017-12-16T09:26:16.897Z,14.30
2017-12-16T09:27:16.904Z,14.50
2017-12-16T09:28:16.920Z,14.90
2017-12-16T09:29:16.927Z,14.00
2017-12-16T09:30:16.941Z,13.60
2017-12-16T09:31:16.947Z,14.10
2017-12-16T09:32:16.967Z,13.50
2017-12-16T09:33:16.974Z,14.50
2017-12-16T09:34:16.989Z,12.40
2017-12-16T09:35:17.055Z,13.80
2017-12-16T09:36:17.004Z,13.60
2017-12-16T09:37:17.037Z,12.80
2017-12-16T09:38:17.033Z,12.60
2017-12-16T09:39:17.041Z,12.90
2017-12-16T09:40:17.053Z,12.40
2017-12-16T09:41:17.062Z,12.80
2017-12-16T09:42:17.088Z,12.60
2017-12-16T09:43:17.084Z,12.80
2017-12-16T09:44:17.100Z,11.70
2017-12-16T09:45:17.109Z,12.80
2017-12-16T09:46:17.120Z,12.60
2017-12-16T09:47:17.130Z,12.20
2017-12-16T09:48:17.145Z,12.10
2017-12-16T09:49:17.156Z,11.30
2017-12-16T09:50:17.173Z,11.90
2017-12-16T09:51:17.179Z,11.20
2017-12-16T09:52:17.189Z,11.40
2017-12-16T09:53:17.201Z,10.70
2017-12-16T09:54:17.216Z,10.80
2017-12-16T09:55:17.220Z,11.80
2017-12-16T09:56:17.234Z,10.90
2017-12-16T09:57:17.245Z,10.80
2017-12-16T09:58:17.257Z,10.60
2017-12-16T09:59:17.274Z,9.00
2017-12-16T10:00:17.287Z,9.80
2017-12-16T10:01:17.295Z,8.90
2017-12-16T10:02:17.309Z,10.40
2017-12-16T10:03:17.317Z,10.00
2017-12-16T10:04:17.341Z,8.70
2017-12-16T10:05:17.342Z,8.90
2017-12-16T10:06:17.350Z,8.30
2017-12-16T10:07:17.361Z,9.00
2017-12-16T10:08:17.375Z,9.80
2017-12-16T10:09:17.387Z,9.00
2017-12-16T10:10:17.398Z,8.80
2017-12-16T10:11:17.412Z,9.50
2017-12-16T10:12:17.422Z,9.40
2017-12-16T10:13:17.440Z,8.90
2017-12-16T10:14:17.449Z,8.70
2017-12-16T10:15:17.456Z,8.80
2017-12-16T10:16:17.472Z,7.90
2017-12-16T10:17:17.489Z,7.40
2017-12-16T10:18:17.503Z,8.40
2017-12-16T10:19:17.504Z,7.00
2017-12-16T10:20:17.517Z,8.10
2017-12-16T10:21:17.532Z,8.50
2017-12-16T10:22:17.644Z,7.60
2017-12-16T10:23:17.550Z,7.90
2017-12-16T10:24:17.565Z,7.90
2017-12-16T10:25:17.578Z,7.70
2017-12-16T10:26:17.592Z,7.20
2017-12-16T10:27:17.600Z,7.30
2017-12-16T10:28:17.611Z,7.70
2017-12-16T10:29:17.622Z,8.30
2017-12-16T10:30:17.684Z,6.90
2017-12-16T10:31:17.647Z,7.20
2017-12-16T10:32:17.659Z,7.10
2017-12-16T10:33:17.672Z,6.80
2017-12-16T10:34:17.688Z,7.20
2017-12-16T10:35:17.697Z,7.20
2017-12-16T10:36:17.705Z,6.80
2017-12-16T10:37:17.738Z,6.80
2017-12-16T10:38:17.733Z,6.00
2017-12-16T10:39:17.745Z,6.30
2017-12-16T10:40:17.757Z,6.50
2017-12-16T10:41:17.767Z,6.60
2017-12-16T10:42:17.779Z,6.30
2017-12-16T10:43:17.793Z,5.70
2017-12-16T10:44:17.805Z,6.10
2017-12-16T10:45:17.819Z,6.20
2017-12-16T10:46:17.828Z,5.40
2017-12-16T10:47:17.838Z,5.10
2017-12-16T10:48:17.848Z,5.90
2017-12-16T10:49:17.864Z,5.50
2017-12-16T10:50:17.885Z,5.70
2017-12-16T10:51:17.888Z,5.90
2017-12-16T10:52:17.901Z,5.90
2017-12-16T10:53:17.915Z,5.30
2017-12-16T10:54:17.923Z,5.90
2017-12-16T10:55:17.985Z,5.90
2017-12-16T10:56:17.949Z,4.60
2017-12-16T10:57:17.960Z,5.10
2017-12-16T10:58:17.974Z,5.40
2017-12-16T10:59:17.985Z,5.50
2017-12-16T11:00:17.996Z,5.60
2017-12-16T11:01:18.009Z,4.80
2017-12-16T11:02:18.020Z,5.40
2017-12-16T11:03:18.033Z,5.80
2017-12-16T11:04:18.042Z,5.40
2017-12-16T11:05:18.056Z,5.30
2017-12-16T11:06:18.072Z,5.30
2017-12-16T11:07:18.084Z,5.00
2017-12-16T11:08:18.094Z,4.30
2017-12-16T11:09:18.102Z,4.60
2017-12-16T11:10:18.116Z,5.00
2017-12-16T11:11:18.127Z,5.30
2017-12-16T11:12:18.141Z,4.80
2017-12-16T11:13:18.156Z,5.10
2017-12-16T11:14:18.166Z,5.40
2017-12-16T11:15:18.177Z,5.10
2017-12-16T11:16:18.187Z,5.30
2017-12-16T11:17:18.204Z,4.70
2017-12-16T11:18:18.213Z,4.80
2017-12-16T11:19:18.224Z,4.80
2017-12-16T11:20:18.235Z,4.60
2017-12-16T11:21:18.246Z,5.20
2017-12-16T11:22:18.260Z,4.30
2017-12-16T11:23:18.272Z,4.10
2017-12-16T11:24:18.287Z,4.30
2017-12-16T11:25:18.297Z,4.10
2017-12-16T11:26:18.308Z,5.00
2017-12-16T11:27:18.324Z,4.70
2017-12-16T11:28:18.332Z,4.60
2017-12-16T11:29:18.343Z,4.40
2017-12-16T11:30:18.358Z,4.20
2017-12-16T11:31:18.370Z,3.90
2017-12-16T11:32:18.382Z,4.10
2017-12-16T11:33:18.393Z,3.90
2017-12-16T11:34:18.406Z,4.10
2017-12-16T11:35:18.421Z,4.50
2017-12-16T11:36:18.428Z,4.60
2017-12-16T11:37:18.445Z,4.00
2017-12-16T11:38:18.453Z,3.90
2017-12-16T11:39:18.465Z,3.70
2017-12-16T11:40:18.474Z,3.60
2017-12-16T11:41:19.093Z,3.90
2017-12-16T11:42:18.497Z,3.00
2017-12-16T11:43:18.507Z,3.80
2017-12-16T11:44:18.519Z,3.50
2017-12-16T11:45:18.531Z,3.40
2017-12-16T11:46:18.544Z,2.80
2017-12-16T11:47:18.554Z,3.20
2017-12-16T11:48:18.579Z,3.10
2017-12-16T11:49:18.581Z,3.30
2017-12-16T11:50:18.595Z,3.20
2017-12-16T11:51:18.604Z,3.40
2017-12-16T11:52:18.617Z,3.80
2017-12-16T11:53:18.629Z,2.80
2017-12-16T11:54:19.466Z,2.80
2017-12-16T11:55:18.654Z,2.90
2017-12-16T11:56:18.666Z,3.10
2017-12-16T11:57:18.681Z,3.10
2017-12-16T11:58:18.688Z,3.40
2017-12-16T11:59:18.705Z,3.40
2017-12-16T12:00:18.714Z,3.00
2017-12-16T12:01:18.725Z,2.60
2017-12-16T12:02:18.742Z,2.60
2017-12-16T12:03:18.751Z,2.70
2017-12-16T12:04:18.766Z,2.70
2017-12-16T12:05:18.775Z,2.50
2017-12-16T12:06:18.789Z,2.80
2017-12-16T12:07:18.804Z,3.20
2017-12-16T12:08:18.812Z,2.80
2017-12-16T12:09:18.825Z,2.70
2017-12-16T12:10:18.843Z,2.50
2017-12-16T12:11:18.852Z,2.70
2017-12-16T12:12:18.862Z,2.90
2017-12-16T12:13:18.876Z,3.30
2017-12-16T12:14:18.888Z,2.60
2017-12-16T12:15:18.900Z,3.50
2017-12-16T12:16:18.911Z,2.70
2017-12-16T12:17:18.928Z,2.90
2017-12-16T12:18:18.936Z,2.70
2017-12-16T12:19:18.951Z,2.60
2017-12-16T12:20:18.960Z,2.60
2017-12-16T12:21:18.975Z,3.20
2017-12-16T12:22:18.987Z,2.90
2017-12-16T12:23:19.003Z,2.90
2017-12-16T12:24:19.010Z,2.60
2017-12-16T12:25:19.023Z,3.00
2017-12-16T12:26:19.035Z,2.90
2017-12-16T12:27:19.047Z,3.10
2017-12-16T12:28:19.060Z,2.60
2017-12-16T12:29:19.072Z,2.80
2017-12-16T12:30:19.086Z,3.00
2017-12-16T12:31:19.105Z,3.20
2017-12-16T12:32:19.115Z,3.00
2017-12-16T12:33:19.125Z,3.40
2017-12-16T12:34:19.136Z,2.60
2017-12-16T12:35:19.147Z,3.30
2017-12-16T12:36:19.158Z,2.90
2017-12-16T12:37:19.175Z,3.00
2017-12-16T12:38:19.184Z,3.00
2017-12-16T12:39:19.198Z,2.40
2017-12-16T12:40:19.210Z,3.10
2017-12-16T12:41:19.221Z,2.40
2017-12-16T12:42:19.234Z,2.80
2017-12-16T12:43:19.268Z,2.80
2017-12-16T12:44:19.263Z,2.60
2017-12-16T12:45:19.270Z,2.70
2017-12-16T12:46:19.285Z,3.20
2017-12-16T12:47:19.295Z,2.60
2017-12-16T12:48:19.308Z,2.80
2017-12-16T12:49:19.328Z,2.50
2017-12-16T12:50:19.333Z,2.90
2017-12-16T12:51:19.342Z,2.50
2017-12-16T12:52:19.358Z,3.10
2017-12-16T12:53:19.368Z,2.90
2017-12-16T12:54:19.381Z,2.80
2017-12-16T12:55:19.395Z,2.60
2017-12-16T12:56:19.405Z,2.90
2017-12-16T12:57:19.418Z,2.80
2017-12-16T12:58:19.430Z,2.60
2017-12-16T12:59:19.446Z,2.70